createdAt,value
2023-08-15T00:01:10.041Z,2.77
2023-08-15T00:03:36.569Z,2.73
2023-08-15T00:06:03.280Z,2.50
2023-08-15T00:08:29.751Z,2.67
2023-08-15T00:10:56.309Z,2.60
2023-08-15T00:13:22.721Z,3.03
2023-08-15T00:15:49.135Z,2.50
2023-08-15T00:18:15.599Z,2.50
2023-08-15T00:20:42.069Z,2.87
2023-08-15T00:23:08.863Z,2.50
2023-08-15T00:25:35.397Z,3.00
2023-08-15T00:28:01.805Z,2.50
2023-08-15T00:30:28.300Z,2.77
2023-08-15T00:32:54.745Z,2.80
2023-08-15T00:35:21.201Z,3.07
2023-08-15T00:37:47.607Z,3.20
2023-08-15T00:40:14.068Z,3.03
2023-08-15T00:42:40.532Z,3.23
2023-08-15T00:45:07.825Z,2.47
2023-08-15T00:47:34.881Z,2.53
2023-08-15T00:50:03.289Z,2.30
2023-08-15T00:52:29.769Z,2.53
2023-08-15T00:54:56.582Z,2.90
2023-08-15T00:57:23.521Z,2.80
2023-08-15T00:59:50.256Z,2.83
2023-08-15T01:02:16.963Z,3.10
2023-08-15T01:04:44.222Z,2.77
2023-08-15T01:07:11.646Z,2.37
2023-08-15T01:09:38.867Z,2.60
2023-08-15T01:12:25.451Z,2.77
2023-08-15T01:15:08.165Z,2.80
2023-08-15T01:17:40.459Z,2.60
2023-08-15T01:20:09.870Z,2.50
2023-08-15T01:22:41.171Z,2.17
2023-08-15T01:25:08.005Z,2.53
2023-08-15T01:27:34.586Z,2.97
2023-08-15T01:30:01.362Z,2.90
2023-08-15T01:32:37.947Z,2.63
2023-08-15T01:35:13.249Z,2.73
2023-08-15T01:37:44.578Z,2.50
2023-08-15T01:40:12.681Z,2.63
2023-08-15T01:42:42.297Z,2.73
2023-08-15T01:45:10.546Z,2.90
2023-08-15T01:47:37.783Z,2.57
2023-08-15T01:50:04.684Z,2.57
2023-08-15T01:52:31.130Z,2.87
2023-08-15T01:54:57.589Z,2.70
2023-08-15T01:57:24.049Z,2.60
2023-08-15T01:59:50.492Z,2.67
2023-08-15T02:02:16.966Z,2.30
2023-08-15T02:04:43.390Z,2.53
2023-08-15T02:07:09.861Z,2.53
2023-08-15T02:09:36.300Z,2.47
2023-08-15T02:12:02.837Z,2.80
2023-08-15T02:14:29.279Z,2.33
2023-08-15T02:16:55.665Z,2.77
2023-08-15T02:19:22.122Z,2.97
2023-08-15T02:21:48.681Z,2.80
2023-08-15T02:24:15.217Z,2.60
2023-08-15T02:26:41.682Z,2.43
2023-08-15T02:29:08.209Z,2.37
2023-08-15T02:31:35.054Z,2.40
2023-08-15T02:34:01.490Z,2.17
2023-08-15T02:36:28.017Z,2.87
2023-08-15T02:38:54.470Z,2.40
2023-08-15T02:41:21.830Z,2.27
2023-08-15T02:43:48.323Z,2.67
2023-08-15T02:46:14.847Z,2.60
2023-08-15T02:48:42.560Z,2.20
2023-08-15T02:51:09.225Z,2.57
2023-08-15T02:53:36.870Z,2.57
2023-08-15T02:56:03.354Z,2.17
2023-08-15T02:58:29.751Z,2.57
2023-08-15T03:00:56.224Z,2.17
2023-08-15T03:03:22.766Z,2.93
2023-08-15T03:05:49.211Z,2.67
2023-08-15T03:08:15.598Z,2.53
2023-08-15T03:10:42.225Z,2.27
2023-08-15T03:13:08.693Z,3.17
2023-08-15T03:15:36.956Z,2.70
2023-08-15T03:18:03.584Z,2.73
2023-08-15T03:20:30.788Z,2.50
2023-08-15T03:22:57.179Z,3.17
2023-08-15T03:25:23.557Z,2.63
2023-08-15T03:27:49.989Z,2.70
2023-08-15T03:30:16.506Z,2.60
2023-08-15T03:32:42.977Z,2.90
2023-08-15T03:35:09.496Z,2.50
2023-08-15T03:37:36.815Z,2.80
2023-08-15T03:40:04.913Z,2.90
2023-08-15T03:42:31.521Z,2.20
2023-08-15T03:44:57.984Z,2.90
2023-08-15T03:47:24.538Z,2.70
2023-08-15T03:49:51.005Z,2.47
2023-08-15T03:52:17.406Z,3.03
2023-08-15T03:54:43.846Z,2.50
2023-08-15T03:57:10.364Z,2.73
2023-08-15T03:59:36.843Z,2.97
2023-08-15T04:02:03.396Z,2.50
2023-08-15T04:04:29.818Z,2.93
2023-08-15T04:06:56.806Z,2.20
2023-08-15T04:09:23.268Z,3.07
2023-08-15T04:11:49.778Z,2.57
2023-08-15T04:14:16.263Z,2.30
2023-08-15T04:16:42.810Z,3.10
2023-08-15T04:19:09.611Z,2.53
2023-08-15T04:21:36.047Z,2.70
2023-08-15T04:24:02.456Z,3.10
2023-08-15T04:26:28.939Z,2.70
2023-08-15T04:28:55.411Z,2.37
2023-08-15T04:31:21.934Z,2.73
2023-08-15T04:33:48.429Z,3.40
2023-08-15T04:36:14.909Z,2.80
2023-08-15T04:38:41.363Z,3.20
2023-08-15T04:41:07.909Z,3.57
2023-08-15T04:43:34.778Z,4.40
2023-08-15T04:46:01.364Z,3.60
2023-08-15T04:48:27.921Z,3.60
2023-08-15T04:50:54.338Z,3.10
2023-08-15T04:53:20.787Z,3.00
2023-08-15T04:55:47.240Z,2.90
2023-08-15T04:58:13.715Z,3.37
2023-08-15T05:00:40.278Z,3.80
2023-08-15T05:03:06.746Z,2.93
2023-08-15T05:05:33.272Z,2.90
2023-08-15T05:07:59.798Z,3.10
2023-08-15T05:10:26.896Z,3.07
2023-08-15T05:12:53.725Z,2.93
2023-08-15T05:15:20.107Z,2.97
2023-08-15T05:17:49.303Z,2.70
2023-08-15T05:20:16.218Z,2.67
2023-08-15T05:22:42.686Z,3.50
2023-08-15T05:25:09.429Z,2.97
2023-08-15T05:27:35.869Z,2.70
2023-08-15T05:30:02.330Z,3.33
2023-08-15T05:32:28.856Z,3.20
2023-08-15T05:34:55.539Z,3.17
2023-08-15T05:37:22.260Z,2.97
2023-08-15T05:39:49.080Z,2.90
2023-08-15T05:42:18.893Z,2.90
2023-08-15T05:44:46.915Z,2.87
2023-08-15T05:47:14.023Z,3.20
2023-08-15T05:49:42.280Z,2.83
2023-08-15T05:52:08.753Z,3.70
2023-08-15T05:54:35.275Z,2.63
2023-08-15T05:57:01.740Z,3.03
2023-08-15T05:59:28.248Z,3.30
2023-08-15T06:01:54.729Z,3.53
2023-08-15T06:04:21.281Z,3.23
2023-08-15T06:06:47.804Z,3.60
2023-08-15T06:09:16.969Z,3.50
2023-08-15T06:11:44.827Z,3.00
2023-08-15T06:14:11.274Z,3.03
2023-08-15T06:16:37.747Z,2.60
2023-08-15T06:19:04.396Z,3.10
2023-08-15T06:21:30.870Z,3.10
2023-08-15T06:23:57.293Z,2.87
2023-08-15T06:26:23.814Z,2.80
2023-08-15T06:28:51.281Z,3.37
2023-08-15T06:31:17.758Z,3.00
2023-08-15T06:33:44.298Z,3.23
2023-08-15T06:36:10.827Z,3.70
2023-08-15T06:38:37.419Z,3.30
2023-08-15T06:41:04.062Z,2.90
2023-08-15T06:43:30.527Z,3.33
2023-08-15T06:45:56.926Z,3.00
2023-08-15T06:48:23.317Z,2.40
2023-08-15T06:50:49.961Z,3.27
2023-08-15T06:53:16.444Z,2.73
2023-08-15T06:55:42.870Z,3.10
2023-08-15T06:58:09.341Z,3.33
2023-08-15T07:00:35.990Z,2.73
2023-08-15T07:03:02.712Z,2.73
2023-08-15T07:05:29.294Z,3.43
2023-08-15T07:07:55.762Z,3.00
2023-08-15T07:10:22.222Z,2.40
2023-08-15T07:12:48.650Z,3.53
2023-08-15T07:15:15.123Z,3.03
2023-08-15T07:17:41.723Z,2.97
2023-08-15T07:20:10.344Z,3.07
2023-08-15T07:22:37.223Z,3.40
2023-08-15T07:25:03.826Z,3.10
2023-08-15T07:27:30.312Z,4.00
2023-08-15T07:29:56.874Z,3.10
2023-08-15T07:32:23.573Z,2.87
2023-08-15T07:34:50.323Z,2.90
2023-08-15T07:37:16.891Z,3.27
2023-08-15T07:39:43.380Z,3.20
2023-08-15T07:42:09.859Z,3.10
2023-08-15T07:44:36.396Z,3.30
2023-08-15T07:47:03.048Z,3.00
2023-08-15T07:49:32.301Z,3.43
2023-08-15T07:51:58.765Z,3.20
2023-08-15T07:54:25.313Z,2.73
2023-08-15T07:56:51.764Z,3.00
2023-08-15T07:59:18.170Z,2.80
2023-08-15T08:01:44.672Z,2.90
2023-08-15T08:04:11.178Z,2.73
2023-08-15T08:06:40.924Z,2.60
2023-08-15T08:09:09.659Z,2.70
2023-08-15T08:11:36.953Z,2.80
2023-08-15T08:14:04.815Z,2.67
2023-08-15T08:16:31.590Z,2.97
2023-08-15T08:18:58.112Z,2.73
2023-08-15T08:21:24.659Z,3.10
2023-08-15T08:23:51.351Z,2.33
2023-08-15T08:26:18.838Z,2.93
2023-08-15T08:28:45.740Z,2.53
2023-08-15T08:31:12.179Z,2.80
2023-08-15T08:33:38.826Z,2.70
2023-08-15T08:36:05.385Z,3.17
2023-08-15T08:38:31.824Z,3.20
2023-08-15T08:40:58.645Z,2.87
2023-08-15T08:43:26.578Z,3.40
2023-08-15T08:45:56.256Z,13.57
2023-08-15T08:48:23.162Z,3.37
2023-08-15T08:50:49.861Z,2.93
2023-08-15T08:53:16.669Z,3.70
2023-08-15T08:55:49.134Z,3.03
2023-08-15T08:58:15.741Z,2.40
2023-08-15T09:00:42.362Z,2.97
2023-08-15T09:03:09.875Z,2.80
2023-08-15T09:05:37.110Z,2.23
2023-08-15T09:08:03.981Z,2.60
2023-08-15T09:10:30.464Z,2.60
2023-08-15T09:13:01.165Z,2.97
2023-08-15T09:15:28.133Z,2.83
2023-08-15T09:18:05.837Z,2.60
2023-08-15T09:20:32.820Z,3.03
2023-08-15T09:23:01.326Z,2.50
2023-08-15T09:25:28.760Z,2.67
2023-08-15T09:27:55.218Z,2.90
2023-08-15T09:30:22.658Z,3.03
2023-08-15T09:32:49.850Z,2.53
2023-08-15T09:35:18.837Z,2.53
2023-08-15T09:37:53.088Z,2.70
2023-08-15T09:40:23.651Z,2.70
2023-08-15T09:42:50.659Z,2.73
2023-08-15T09:45:17.511Z,2.60
2023-08-15T09:47:46.196Z,2.50
2023-08-15T09:50:14.649Z,3.03
2023-08-15T09:52:43.029Z,2.70
2023-08-15T09:55:15.272Z,2.40
2023-08-15T09:57:43.490Z,2.83
2023-08-15T10:00:18.661Z,2.60
2023-08-15T10:03:02.457Z,2.20
2023-08-15T10:05:33.122Z,1.83
2023-08-15T10:08:00.058Z,1.27
2023-08-15T10:10:32.026Z,1.90
2023-08-15T10:12:59.985Z,1.73
2023-08-15T10:15:28.502Z,1.40
2023-08-15T10:17:55.442Z,1.20
2023-08-15T10:20:22.417Z,1.57
2023-08-15T10:22:55.625Z,1.30
2023-08-15T10:25:25.270Z,1.27
2023-08-15T10:27:53.609Z,1.30
2023-08-15T10:30:30.261Z,1.30
2023-08-15T10:33:01.744Z,1.63
2023-08-15T10:35:32.263Z,1.33
2023-08-15T10:37:59.314Z,1.53
2023-08-15T10:40:41.692Z,1.37
2023-08-15T10:43:11.526Z,1.47
2023-08-15T10:45:39.893Z,0.90
2023-08-15T10:48:06.994Z,1.27
2023-08-15T10:50:34.126Z,1.33
2023-08-15T10:53:05.873Z,1.27
2023-08-15T10:55:35.935Z,1.50
2023-08-15T10:58:05.683Z,1.27
2023-08-15T11:00:34.000Z,1.43
2023-08-15T11:03:02.831Z,1.10
2023-08-15T11:05:29.993Z,1.27
2023-08-15T11:08:20.390Z,1.60
2023-08-15T11:10:51.274Z,0.90
2023-08-15T11:13:18.485Z,1.00
2023-08-15T11:15:48.028Z,1.10
2023-08-15T11:18:23.220Z,0.97
2023-08-15T11:20:52.052Z,1.13
2023-08-15T11:23:20.130Z,0.93
2023-08-15T11:25:46.532Z,1.07
2023-08-15T11:28:13.016Z,1.17
2023-08-15T11:30:39.636Z,1.17
2023-08-15T11:33:06.620Z,1.30
2023-08-15T11:35:33.223Z,1.83
2023-08-15T11:38:01.866Z,1.37
2023-08-15T11:40:28.392Z,1.13
2023-08-15T11:42:55.038Z,1.60
2023-08-15T11:45:23.958Z,1.10
2023-08-15T11:47:59.060Z,0.93
2023-08-15T11:50:42.010Z,1.27
2023-08-15T11:53:13.577Z,1.40
2023-08-15T11:55:40.859Z,1.60
2023-08-15T11:58:26.670Z,0.73
2023-08-15T12:01:13.220Z,1.10
2023-08-15T12:03:40.363Z,1.30
2023-08-15T12:06:09.161Z,1.20
2023-08-15T12:08:36.061Z,1.93
2023-08-15T12:11:09.253Z,1.57
2023-08-15T12:13:40.152Z,1.23
2023-08-15T12:16:08.966Z,1.40
2023-08-15T12:18:35.983Z,1.00
2023-08-15T12:21:05.682Z,1.57
2023-08-15T12:23:32.357Z,1.83
2023-08-15T12:25:58.853Z,1.30
2023-08-15T12:28:28.992Z,1.90
2023-08-15T12:30:56.155Z,1.90
2023-08-15T12:33:35.568Z,1.90
2023-08-15T12:36:07.741Z,1.77
2023-08-15T12:38:34.216Z,1.03
2023-08-15T12:41:00.763Z,1.47
2023-08-15T12:43:27.427Z,2.07
2023-08-15T12:45:53.978Z,2.30
2023-08-15T12:48:20.565Z,1.23
2023-08-15T12:50:47.161Z,2.03
2023-08-15T12:53:14.012Z,2.03
2023-08-15T12:55:40.560Z,2.40
2023-08-15T12:58:07.059Z,2.00
2023-08-15T13:00:33.637Z,1.53
2023-08-15T13:03:00.222Z,2.00
2023-08-15T13:05:26.856Z,1.73
2023-08-15T13:07:53.537Z,1.53
2023-08-15T13:10:20.029Z,1.70
2023-08-15T13:12:47.235Z,1.53
2023-08-15T13:15:13.774Z,1.03
2023-08-15T13:17:40.373Z,1.60
2023-08-15T13:20:07.745Z,1.50
2023-08-15T13:22:34.276Z,1.70
2023-08-15T13:25:00.975Z,1.53
2023-08-15T13:27:27.499Z,1.57
2023-08-15T13:29:54.044Z,1.03
2023-08-15T13:32:20.730Z,1.57
2023-08-15T13:34:47.399Z,1.50
2023-08-15T13:37:13.813Z,1.83
2023-08-15T13:39:40.263Z,1.87
2023-08-15T13:42:09.605Z,1.50
2023-08-15T13:44:40.225Z,1.83
2023-08-15T13:47:06.798Z,2.10
2023-08-15T13:49:33.423Z,1.83
2023-08-15T13:51:59.919Z,2.07
2023-08-15T13:54:26.450Z,1.83
2023-08-15T13:56:55.367Z,1.30
2023-08-15T13:59:22.312Z,1.47
2023-08-15T14:01:48.874Z,2.13
2023-08-15T14:04:15.317Z,1.87
2023-08-15T14:06:41.802Z,2.00
2023-08-15T14:09:08.257Z,1.43
2023-08-15T14:11:34.793Z,1.83
2023-08-15T14:14:01.234Z,1.47
2023-08-15T14:16:27.726Z,1.73
2023-08-15T14:18:54.144Z,2.33
2023-08-15T14:21:20.587Z,1.83
2023-08-15T14:23:47.821Z,1.67
2023-08-15T14:26:14.376Z,1.90
2023-08-15T14:28:40.855Z,1.87
2023-08-15T14:31:07.398Z,1.50
2023-08-15T14:33:33.958Z,1.53
2023-08-15T14:36:00.540Z,1.53
2023-08-15T14:38:27.114Z,1.43
2023-08-15T14:40:53.793Z,1.80
2023-08-15T14:43:20.262Z,1.50
2023-08-15T14:45:46.808Z,1.70
2023-08-15T14:48:13.321Z,2.03
2023-08-15T14:50:41.147Z,1.77
2023-08-15T14:53:07.678Z,1.60
2023-08-15T14:55:34.296Z,2.00
2023-08-15T14:58:01.074Z,1.60
2023-08-15T15:00:27.680Z,1.93
2023-08-15T15:02:54.275Z,2.00
2023-08-15T15:05:21.010Z,1.23
2023-08-15T15:07:47.592Z,1.33
2023-08-15T15:10:14.173Z,1.47
2023-08-15T15:12:40.972Z,1.60
2023-08-15T15:15:09.708Z,1.90
2023-08-15T15:17:36.484Z,1.97
2023-08-15T15:20:04.601Z,1.50
2023-08-15T15:22:31.193Z,1.40
2023-08-15T15:24:57.754Z,1.60
2023-08-15T15:27:24.260Z,1.43
2023-08-15T15:29:51.089Z,1.43
2023-08-15T15:32:17.744Z,2.00
2023-08-15T15:34:44.224Z,2.00
2023-08-15T15:37:10.691Z,1.60
2023-08-15T15:39:37.127Z,1.13
2023-08-15T15:42:03.855Z,1.67
2023-08-15T15:44:30.926Z,1.47
2023-08-15T15:46:57.723Z,1.83
2023-08-15T15:49:24.504Z,1.93
2023-08-15T15:51:51.001Z,1.60
2023-08-15T15:54:17.555Z,1.57
2023-08-15T15:56:44.341Z,1.40
2023-08-15T15:59:11.365Z,1.27
2023-08-15T16:01:38.151Z,1.80
2023-08-15T16:04:04.926Z,1.47
2023-08-15T16:06:31.899Z,1.20
2023-08-15T16:08:58.716Z,1.70
2023-08-15T16:11:25.693Z,1.50
2023-08-15T16:13:52.660Z,1.37
2023-08-15T16:16:19.168Z,1.50
2023-08-15T16:18:45.813Z,1.47
2023-08-15T16:21:12.557Z,1.67
2023-08-15T16:23:39.087Z,1.20
2023-08-15T16:26:05.646Z,1.37
2023-08-15T16:28:32.124Z,1.53
2023-08-15T16:30:58.609Z,1.70
2023-08-15T16:33:25.121Z,1.47
2023-08-15T16:35:51.576Z,1.73
2023-08-15T16:38:18.047Z,1.30
2023-08-15T16:40:44.529Z,1.80
2023-08-15T16:43:11.894Z,1.30
2023-08-15T16:45:39.863Z,1.30
2023-08-15T16:48:07.115Z,1.23
2023-08-15T16:50:33.595Z,1.30
2023-08-15T16:53:03.664Z,1.07
2023-08-15T16:55:47.254Z,1.20
2023-08-15T16:58:14.067Z,1.10
2023-08-15T17:00:41.116Z,1.40
2023-08-15T17:03:07.767Z,1.23
2023-08-15T17:05:34.518Z,1.37
2023-08-15T17:08:01.045Z,1.70
2023-08-15T17:10:27.951Z,1.10
2023-08-15T17:12:54.572Z,1.47
2023-08-15T17:15:21.061Z,1.13
2023-08-15T17:17:47.559Z,1.07
2023-08-15T17:20:14.065Z,0.70
2023-08-15T17:22:40.533Z,1.30
2023-08-15T17:25:07.532Z,1.10
2023-08-15T17:27:34.096Z,1.30
2023-08-15T17:30:00.546Z,0.73
2023-08-15T17:32:27.598Z,1.13
2023-08-15T17:34:54.165Z,1.00
2023-08-15T17:37:20.752Z,1.00
2023-08-15T17:39:47.232Z,1.30
2023-08-15T17:42:13.729Z,1.10
2023-08-15T17:44:40.272Z,0.80
2023-08-15T17:47:07.017Z,0.90
2023-08-15T17:49:33.783Z,1.33
2023-08-15T17:52:00.249Z,0.90
2023-08-15T17:54:27.122Z,1.20
2023-08-15T17:56:53.659Z,1.13
2023-08-15T17:59:20.216Z,1.27
2023-08-15T18:01:46.752Z,1.40
2023-08-15T18:04:13.618Z,1.43
2023-08-15T18:06:40.137Z,0.97
2023-08-15T18:09:06.652Z,0.90
2023-08-15T18:11:33.392Z,0.93
2023-08-15T18:14:01.581Z,1.00
2023-08-15T18:16:29.038Z,1.37
2023-08-15T18:18:55.663Z,1.20
2023-08-15T18:21:22.373Z,1.20
2023-08-15T18:23:48.974Z,0.90
2023-08-15T18:26:15.536Z,1.50
2023-08-15T18:28:42.079Z,1.17
2023-08-15T18:31:08.638Z,1.10
2023-08-15T18:33:35.088Z,1.30
2023-08-15T18:36:01.762Z,1.23
2023-08-15T18:38:32.541Z,0.97
2023-08-15T18:40:59.647Z,1.20
2023-08-15T18:43:26.201Z,1.43
2023-08-15T18:45:53.397Z,1.30
2023-08-15T18:48:21.465Z,0.90
2023-08-15T18:50:48.253Z,1.00
2023-08-15T18:53:14.826Z,1.10
2023-08-15T18:55:42.396Z,1.30
2023-08-15T18:58:10.388Z,1.40
2023-08-15T19:00:38.819Z,1.20
2023-08-15T19:03:05.927Z,1.17
2023-08-15T19:05:32.589Z,1.20
2023-08-15T19:07:59.816Z,1.23
2023-08-15T19:10:26.454Z,1.30
2023-08-15T19:12:53.058Z,0.90
2023-08-15T19:15:20.918Z,1.30
2023-08-15T19:17:50.858Z,1.37
2023-08-15T19:20:22.355Z,1.20
2023-08-15T19:22:49.591Z,1.13
2023-08-15T19:25:16.994Z,1.10
2023-08-15T19:27:43.842Z,1.37
2023-08-15T19:30:10.733Z,1.20
2023-08-15T19:32:37.286Z,1.57
2023-08-15T19:35:04.734Z,1.37
2023-08-15T19:37:37.912Z,1.20
2023-08-15T19:40:07.861Z,1.20
2023-08-15T19:42:43.242Z,1.13
2023-08-15T19:45:11.289Z,1.03
2023-08-15T19:47:38.952Z,1.53
2023-08-15T19:50:06.859Z,1.10
2023-08-15T19:52:34.678Z,1.10
2023-08-15T19:55:01.827Z,1.20
2023-08-15T19:57:28.293Z,1.00
2023-08-15T19:59:54.848Z,1.47
2023-08-15T20:02:21.826Z,1.30
2023-08-15T20:04:48.778Z,0.87
2023-08-15T20:07:15.285Z,1.30
2023-08-15T20:09:46.649Z,1.10
2023-08-15T20:12:18.471Z,1.30
2023-08-15T20:14:44.934Z,1.00
2023-08-15T20:17:11.662Z,1.53
2023-08-15T20:19:38.131Z,1.30
2023-08-15T20:22:04.801Z,2.10
2023-08-15T20:24:32.129Z,1.60
2023-08-15T20:26:58.589Z,1.37
2023-08-15T20:29:24.998Z,1.53
2023-08-15T20:31:51.585Z,1.10
2023-08-15T20:34:18.068Z,0.90
2023-08-15T20:36:44.612Z,1.57
2023-08-15T20:39:11.082Z,1.30
2023-08-15T20:41:37.573Z,1.50
2023-08-15T20:44:04.132Z,1.23
2023-08-15T20:46:38.815Z,1.47
2023-08-15T20:49:05.451Z,1.20
2023-08-15T20:51:32.420Z,1.63
2023-08-15T20:53:59.867Z,1.40
2023-08-15T20:56:29.659Z,1.20
2023-08-15T20:58:56.593Z,1.70
2023-08-15T21:01:23.287Z,1.37
2023-08-15T21:03:50.146Z,1.53
2023-08-15T21:06:16.950Z,1.20
2023-08-15T21:08:43.528Z,1.30
2023-08-15T21:11:10.049Z,1.27
2023-08-15T21:13:36.670Z,1.07
2023-08-15T21:16:03.161Z,1.50
2023-08-15T21:18:29.616Z,1.50
2023-08-15T21:20:56.077Z,1.40
2023-08-15T21:23:22.581Z,1.70
2023-08-15T21:25:49.013Z,1.40
2023-08-15T21:28:17.153Z,1.47
2023-08-15T21:30:44.091Z,1.20
2023-08-15T21:33:11.015Z,1.30
2023-08-15T21:35:37.443Z,1.37
2023-08-15T21:38:04.017Z,1.40
2023-08-15T21:40:30.415Z,1.40
2023-08-15T21:42:56.934Z,1.53
2023-08-15T21:45:23.571Z,1.10
2023-08-15T21:47:50.093Z,1.43
2023-08-15T21:50:16.574Z,1.40
2023-08-15T21:52:43.080Z,1.20
2023-08-15T21:55:09.797Z,1.40
2023-08-15T21:57:36.276Z,1.67
2023-08-15T22:00:02.797Z,1.50
2023-08-15T22:02:32.334Z,1.47
2023-08-15T22:04:59.490Z,1.43
2023-08-15T22:07:25.943Z,1.47
2023-08-15T22:09:52.379Z,1.17
2023-08-15T22:12:18.791Z,1.33
2023-08-15T22:14:45.176Z,1.23
2023-08-15T22:17:11.645Z,1.10
2023-08-15T22:19:38.252Z,1.20
2023-08-15T22:25:51.934Z,1.70
2023-08-15T22:28:18.612Z,1.27
2023-08-15T22:30:45.503Z,1.43
2023-08-15T22:33:12.014Z,1.63
2023-08-15T22:35:39.789Z,1.27
2023-08-15T22:38:06.288Z,1.57
2023-08-15T22:40:32.809Z,1.43
2023-08-15T22:42:59.238Z,1.63
2023-08-15T22:45:25.699Z,1.80
2023-08-15T22:47:52.361Z,1.30
2023-08-15T22:50:19.216Z,1.70
2023-08-15T22:52:45.993Z,1.70
2023-08-15T22:55:12.400Z,1.50
2023-08-15T22:57:38.887Z,1.70
2023-08-15T23:00:06.048Z,1.40
2023-08-15T23:02:32.480Z,1.63
2023-08-15T23:04:58.938Z,1.90
2023-08-15T23:07:25.591Z,1.50
2023-08-15T23:09:52.149Z,1.80
2023-08-15T23:12:18.628Z,1.73
2023-08-15T23:14:45.082Z,1.40
2023-08-15T23:17:11.637Z,1.37
2023-08-15T23:19:38.098Z,1.77
2023-08-15T23:22:04.636Z,1.77
2023-08-15T23:24:31.161Z,1.50
2023-08-15T23:26:57.756Z,1.47
2023-08-15T23:29:24.262Z,1.80
2023-08-15T23:31:50.758Z,1.60
2023-08-15T23:34:17.841Z,1.50
2023-08-15T23:36:44.269Z,1.80
2023-08-15T23:39:10.753Z,1.30
2023-08-15T23:41:37.150Z,1.63
2023-08-15T23:44:03.775Z,1.87
2023-08-15T23:46:30.257Z,1.67
2023-08-15T23:48:56.889Z,1.77
2023-08-15T23:51:23.482Z,1.50
2023-08-15T23:53:51.333Z,1.70
2023-08-15T23:56:17.768Z,1.80
2023-08-15T23:58:45.926Z,2.03
